createdAt,value
2023-03-03T00:01:10.908Z,20.17
2023-03-03T00:03:40.394Z,19.90
2023-03-03T00:06:12.263Z,18.45
2023-03-03T00:08:41.879Z,18.75
2023-03-03T00:11:12.700Z,19.40
2023-03-03T00:13:49.476Z,19.52
2023-03-03T00:16:23.947Z,19.67
2023-03-03T00:18:53.409Z,19.30
2023-03-03T00:21:29.560Z,19.63
2023-03-03T00:24:17.099Z,19.42
2023-03-03T00:26:49.571Z,18.67
2023-03-03T00:29:31.026Z,20.45
2023-03-03T00:32:17.751Z,18.23
2023-03-03T00:34:46.674Z,20.50
2023-03-03T00:37:29.307Z,18.88
2023-03-03T00:40:15.088Z,20.87
2023-03-03T00:42:48.600Z,19.10
2023-03-03T00:45:31.332Z,20.38
2023-03-03T00:48:00.654Z,21.30
2023-03-03T00:50:36.074Z,20.35
2023-03-03T00:53:12.418Z,19.95
2023-03-03T00:55:41.982Z,18.92
2023-03-03T00:58:12.589Z,19.90
2023-03-03T01:00:42.488Z,19.23
2023-03-03T01:03:15.012Z,20.90
2023-03-03T01:05:44.168Z,19.92
2023-03-03T01:08:13.152Z,20.85
2023-03-03T01:10:46.750Z,21.40
2023-03-03T01:13:17.068Z,21.17
2023-03-03T01:15:46.218Z,21.17
2023-03-03T01:18:15.953Z,21.80
2023-03-03T01:20:44.914Z,21.80
2023-03-03T01:23:13.832Z,21.65
2023-03-03T01:25:42.835Z,20.13
2023-03-03T01:28:11.909Z,22.17
2023-03-03T01:30:42.256Z,21.20
2023-03-03T01:33:11.140Z,21.52
2023-03-03T01:35:44.693Z,23.08
2023-03-03T01:38:13.583Z,22.63
2023-03-03T01:40:42.984Z,22.77
2023-03-03T01:43:16.221Z,21.80
2023-03-03T01:48:45.838Z,22.30
2023-03-03T01:51:22.277Z,23.48
2023-03-03T01:53:55.035Z,21.83
2023-03-03T01:56:24.076Z,24.23
2023-03-03T01:58:58.052Z,23.80
2023-03-03T02:01:30.409Z,23.52
2023-03-03T02:03:59.638Z,21.33
2023-03-03T02:06:32.511Z,22.25
2023-03-03T02:09:05.396Z,23.65
2023-03-03T02:11:37.862Z,23.67
2023-03-03T02:14:06.835Z,25.00
2023-03-03T02:16:37.292Z,24.02
2023-03-03T02:19:07.001Z,24.42
2023-03-03T02:21:35.944Z,23.25
2023-03-03T02:24:09.542Z,24.02
2023-03-03T02:26:42.765Z,25.00
2023-03-03T02:31:40.335Z,26.00
2023-03-03T02:34:08.902Z,24.50
2023-03-03T02:36:39.474Z,24.23
2023-03-03T02:39:12.104Z,25.80
2023-03-03T02:41:46.461Z,25.65
2023-03-03T02:44:16.191Z,24.90
2023-03-03T02:46:46.587Z,26.60
2023-03-03T02:49:16.588Z,26.55
2023-03-03T02:51:45.563Z,26.85
2023-03-03T02:54:16.134Z,27.52
2023-03-03T02:56:45.932Z,25.25
2023-03-03T02:59:14.503Z,26.33
2023-03-03T03:01:43.097Z,26.33
2023-03-03T03:04:13.716Z,25.30
2023-03-03T03:06:42.487Z,26.70
2023-03-03T03:09:11.788Z,25.98
2023-03-03T03:11:40.511Z,26.50
2023-03-03T03:14:12.079Z,26.58
2023-03-03T03:16:41.007Z,25.60
2023-03-03T03:19:10.115Z,25.23
2023-03-03T03:21:38.449Z,25.98
2023-03-03T03:24:07.307Z,24.48
2023-03-03T03:26:35.568Z,25.27
2023-03-03T03:29:03.870Z,25.05
2023-03-03T03:31:33.816Z,25.02
2023-03-03T03:34:02.092Z,24.17
2023-03-03T03:36:30.352Z,25.73
2023-03-03T03:38:58.632Z,25.45
2023-03-03T03:41:26.803Z,24.75
2023-03-03T03:43:54.988Z,25.63
2023-03-03T03:46:23.194Z,26.10
2023-03-03T03:48:52.896Z,25.10
2023-03-03T03:51:21.182Z,25.20
2023-03-03T03:53:49.397Z,22.73
2023-03-03T03:56:17.692Z,24.73
2023-03-03T03:58:45.920Z,24.85
2023-03-03T04:01:14.162Z,24.02
2023-03-03T04:03:42.645Z,25.30
2023-03-03T04:06:12.245Z,26.38
2023-03-03T04:08:40.478Z,25.42
2023-03-03T04:11:08.720Z,25.15
2023-03-03T04:13:37.027Z,23.83
2023-03-03T04:16:05.521Z,24.75
2023-03-03T04:18:33.795Z,21.77
2023-03-03T04:21:02.054Z,24.45
2023-03-03T04:23:31.716Z,25.27
2023-03-03T04:26:00.035Z,24.23
2023-03-03T04:28:28.366Z,23.60
2023-03-03T04:30:56.610Z,24.48
2023-03-03T04:33:24.838Z,24.30
2023-03-03T04:35:53.245Z,24.15
2023-03-03T04:38:21.984Z,25.98
2023-03-03T04:40:51.673Z,24.77
2023-03-03T04:43:19.874Z,24.27
2023-03-03T04:45:48.273Z,25.35
2023-03-03T04:48:16.526Z,22.92
2023-03-03T04:50:44.739Z,23.95
2023-03-03T04:53:13.002Z,23.75
2023-03-03T04:55:41.187Z,24.15
2023-03-03T04:58:11.121Z,25.10
2023-03-03T05:00:39.820Z,24.98
2023-03-03T05:03:08.322Z,24.73
2023-03-03T05:05:36.535Z,21.05
2023-03-03T05:08:04.781Z,24.60
2023-03-03T05:10:35.055Z,25.00
2023-03-03T05:13:03.426Z,23.55
2023-03-03T05:15:33.137Z,24.63
2023-03-03T05:18:01.520Z,25.92
2023-03-03T05:20:29.766Z,23.70
2023-03-03T05:23:00.106Z,22.77
2023-03-03T05:25:28.372Z,24.33
2023-03-03T05:27:56.693Z,24.08
2023-03-03T05:30:27.531Z,24.05
2023-03-03T05:32:59.408Z,25.13
2023-03-03T05:35:27.732Z,25.00
2023-03-03T05:37:58.116Z,23.75
2023-03-03T05:40:27.008Z,22.77
2023-03-03T05:42:55.391Z,21.98
2023-03-03T05:45:24.430Z,22.58
2023-03-03T05:47:53.046Z,22.13
2023-03-03T05:50:24.112Z,21.25
2023-03-03T05:52:53.548Z,22.65
2023-03-03T05:55:21.844Z,20.85
2023-03-03T05:57:50.126Z,21.83
2023-03-03T06:00:19.342Z,22.83
2023-03-03T06:02:47.906Z,20.88
2023-03-03T06:05:16.186Z,21.98
2023-03-03T06:07:45.786Z,17.17
2023-03-03T06:10:14.059Z,23.02
2023-03-03T06:12:42.287Z,21.95
2023-03-03T06:15:11.377Z,23.10
2023-03-03T06:17:39.645Z,20.98
2023-03-03T06:20:16.759Z,21.95
2023-03-03T06:22:46.423Z,21.00
2023-03-03T06:25:14.677Z,20.42
2023-03-03T06:27:42.929Z,19.98
2023-03-03T06:30:12.958Z,19.45
2023-03-03T06:32:41.480Z,20.35
2023-03-03T06:35:10.025Z,19.92
2023-03-03T06:37:38.297Z,18.73
2023-03-03T06:40:09.461Z,18.30
2023-03-03T06:42:37.692Z,18.73
2023-03-03T06:45:06.666Z,19.27
2023-03-03T06:47:35.108Z,18.83
2023-03-03T06:50:03.294Z,17.27
2023-03-03T06:52:31.511Z,18.13
2023-03-03T06:55:01.982Z,17.75
2023-03-03T06:57:33.466Z,18.65
2023-03-03T07:00:14.278Z,17.23
2023-03-03T07:02:42.612Z,16.92
2023-03-03T07:05:16.265Z,14.80
2023-03-03T07:07:45.191Z,16.00
2023-03-03T07:10:25.030Z,15.32
2023-03-03T07:12:55.040Z,14.32
2023-03-03T07:15:25.735Z,16.40
2023-03-03T07:17:59.821Z,14.60
2023-03-03T07:20:36.277Z,15.48
2023-03-03T07:23:19.937Z,14.13
2023-03-03T07:25:48.678Z,14.48
2023-03-03T07:28:24.175Z,13.80
2023-03-03T07:30:52.723Z,16.05
2023-03-03T07:33:27.188Z,15.45
2023-03-03T07:35:57.093Z,15.88
2023-03-03T07:38:32.180Z,15.65
2023-03-03T07:41:02.975Z,15.48
2023-03-03T07:43:39.166Z,14.20
2023-03-03T07:46:27.964Z,16.33
2023-03-03T07:49:00.117Z,13.50
2023-03-03T07:51:31.856Z,13.48
2023-03-03T07:54:18.919Z,12.57
2023-03-03T07:56:48.072Z,12.63
2023-03-03T07:59:23.844Z,12.85
2023-03-03T08:01:55.298Z,13.10
2023-03-03T08:04:29.601Z,12.43
2023-03-03T08:06:59.176Z,14.13
2023-03-03T08:09:40.259Z,13.25
2023-03-03T08:12:31.449Z,14.50
2023-03-03T08:15:30.784Z,13.70
2023-03-03T08:18:02.559Z,13.73
2023-03-03T08:20:57.202Z,13.20
2023-03-03T08:23:25.407Z,12.73
2023-03-03T08:25:54.030Z,11.65
2023-03-03T08:28:22.780Z,12.88
2023-03-03T08:31:02.703Z,12.52
2023-03-03T08:33:34.107Z,13.05
2023-03-03T08:36:03.084Z,14.10
2023-03-03T08:38:31.287Z,12.65
2023-03-03T08:40:59.484Z,14.48
2023-03-03T08:43:28.733Z,12.20
2023-03-03T08:46:01.214Z,12.07
2023-03-03T08:48:30.298Z,11.98
2023-03-03T08:50:58.855Z,13.35
2023-03-03T08:53:27.506Z,11.57
2023-03-03T08:55:56.108Z,12.02
2023-03-03T08:58:34.715Z,11.90
2023-03-03T09:01:05.692Z,11.90
2023-03-03T09:03:34.097Z,11.82
2023-03-03T09:06:02.388Z,12.05
2023-03-03T09:08:30.594Z,10.98
2023-03-03T09:10:58.847Z,11.45
2023-03-03T09:13:28.385Z,10.45
2023-03-03T09:15:59.101Z,11.27
2023-03-03T09:18:36.488Z,12.55
2023-03-03T09:21:20.079Z,11.40
2023-03-03T09:23:51.953Z,11.85
2023-03-03T09:26:31.326Z,12.68
2023-03-03T09:29:10.896Z,11.95
2023-03-03T09:31:46.308Z,13.02
2023-03-03T09:34:21.439Z,11.38
2023-03-03T09:36:50.588Z,11.05
2023-03-03T09:39:23.416Z,11.80
2023-03-03T09:42:26.117Z,13.02
2023-03-03T09:45:18.803Z,12.02
2023-03-03T09:48:04.141Z,12.35
2023-03-03T09:50:45.051Z,11.88
2023-03-03T09:53:25.370Z,12.30
2023-03-03T09:56:00.759Z,11.38
2023-03-03T09:58:51.278Z,11.55
2023-03-03T10:01:48.397Z,11.48
2023-03-03T10:04:50.661Z,10.57
2023-03-03T10:07:39.123Z,11.73
2023-03-03T10:10:30.925Z,11.52
2023-03-03T10:13:13.254Z,11.13
2023-03-03T10:15:49.282Z,12.10
2023-03-03T10:18:32.256Z,11.32
2023-03-03T10:21:10.764Z,11.75
2023-03-03T10:23:58.815Z,12.27
2023-03-03T10:27:12.125Z,12.23
2023-03-03T10:29:54.174Z,11.82
2023-03-03T10:32:43.618Z,11.55
2023-03-03T10:35:41.518Z,11.48
2023-03-03T10:38:27.465Z,11.77
2023-03-03T10:41:08.557Z,11.48
2023-03-03T10:44:00.573Z,11.75
2023-03-03T10:46:47.231Z,11.90
2023-03-03T10:49:47.682Z,10.52
2023-03-03T10:52:46.413Z,10.35
2023-03-03T10:55:38.262Z,10.52
2023-03-03T10:58:28.607Z,12.33
2023-03-03T11:01:05.414Z,9.77
2023-03-03T11:03:46.745Z,10.65
2023-03-03T11:06:21.668Z,11.70
2023-03-03T11:08:55.187Z,11.43
2023-03-03T11:11:34.191Z,10.40
2023-03-03T11:14:13.241Z,11.02
2023-03-03T11:16:54.392Z,11.85
2023-03-03T11:19:47.490Z,11.40
2023-03-03T11:22:29.524Z,9.57
2023-03-03T11:25:06.679Z,9.90
2023-03-03T11:28:07.702Z,8.55
2023-03-03T11:30:47.209Z,9.40
2023-03-03T11:33:22.273Z,9.20
2023-03-03T11:36:02.661Z,9.57
2023-03-03T11:38:42.612Z,9.75
2023-03-03T11:41:24.603Z,8.60
2023-03-03T11:43:57.680Z,8.93
2023-03-03T11:46:34.199Z,9.68
2023-03-03T11:49:07.831Z,8.68
2023-03-03T11:51:45.306Z,8.88
2023-03-03T11:54:22.213Z,10.02
2023-03-03T11:56:51.074Z,9.43
2023-03-03T11:59:47.249Z,8.50
2023-03-03T12:02:37.179Z,8.32
2023-03-03T12:05:11.828Z,8.70
2023-03-03T12:07:50.724Z,9.73
2023-03-03T12:10:29.163Z,8.23
2023-03-03T12:13:04.472Z,8.07
2023-03-03T12:15:44.823Z,8.07
2023-03-03T12:18:40.471Z,8.65
2023-03-03T12:21:26.136Z,7.68
2023-03-03T12:24:23.550Z,7.82
2023-03-03T12:27:00.192Z,7.72
2023-03-03T12:29:36.733Z,7.18
2023-03-03T12:32:18.709Z,8.07
2023-03-03T12:34:54.955Z,8.23
2023-03-03T12:37:40.472Z,8.93
2023-03-03T12:40:14.488Z,7.97
2023-03-03T12:43:05.845Z,7.20
2023-03-03T12:45:43.289Z,7.07
2023-03-03T12:48:18.163Z,9.57
2023-03-03T12:51:00.660Z,7.50
2023-03-03T12:53:47.896Z,7.20
2023-03-03T12:56:26.175Z,6.93
2023-03-03T12:59:01.733Z,6.55
2023-03-03T13:01:46.050Z,5.95
2023-03-03T13:04:29.987Z,6.15
2023-03-03T13:07:06.061Z,6.72
2023-03-03T13:09:41.653Z,6.40
2023-03-03T13:12:26.923Z,6.82
2023-03-03T13:14:58.674Z,6.53
2023-03-03T13:17:31.517Z,5.45
2023-03-03T13:20:02.229Z,5.65
2023-03-03T13:22:40.864Z,5.40
2023-03-03T13:25:25.956Z,6.03
2023-03-03T13:28:00.154Z,5.93
2023-03-03T13:30:33.240Z,6.30
2023-03-03T13:33:04.688Z,5.90
2023-03-03T13:35:44.595Z,5.47
2023-03-03T13:38:19.908Z,5.80
2023-03-03T13:40:52.104Z,5.47
2023-03-03T13:43:24.107Z,5.18
2023-03-03T13:46:00.146Z,4.85
2023-03-03T13:48:45.127Z,5.30
2023-03-03T13:51:23.304Z,6.30
2023-03-03T13:54:00.009Z,5.72
2023-03-03T13:56:41.190Z,5.88
2023-03-03T13:59:18.791Z,5.43
2023-03-03T14:01:57.235Z,5.30
2023-03-03T14:04:39.639Z,4.95
2023-03-03T14:07:15.596Z,5.03
2023-03-03T14:10:03.588Z,4.90
2023-03-03T14:12:43.354Z,6.30
2023-03-03T14:15:23.853Z,5.82
2023-03-03T14:18:16.969Z,4.85
2023-03-03T14:20:49.626Z,5.28
2023-03-03T14:23:22.931Z,5.22
2023-03-03T14:26:08.717Z,4.65
2023-03-03T14:28:44.146Z,4.78
2023-03-03T14:31:19.431Z,4.78
2023-03-03T14:33:58.537Z,5.28
2023-03-03T14:36:32.194Z,5.07
2023-03-03T14:39:01.031Z,4.72
2023-03-03T14:41:43.062Z,4.93
2023-03-03T14:44:29.598Z,4.78
2023-03-03T14:47:14.436Z,4.57
2023-03-03T14:49:42.895Z,4.95
2023-03-03T14:52:22.670Z,4.82
2023-03-03T14:54:54.246Z,5.10
2023-03-03T14:57:46.329Z,4.28
2023-03-03T15:00:31.351Z,4.78
2023-03-03T15:03:06.723Z,4.90
2023-03-03T15:05:35.347Z,9.13
2023-03-03T15:08:12.376Z,4.72
2023-03-03T15:10:42.476Z,4.30
2023-03-03T15:13:34.146Z,4.20
2023-03-03T15:16:12.052Z,4.68
2023-03-03T15:19:07.267Z,3.67
2023-03-03T15:21:38.355Z,3.72
2023-03-03T15:24:14.129Z,5.00
2023-03-03T15:26:48.567Z,3.70
2023-03-03T15:29:26.483Z,3.67
2023-03-03T15:32:02.343Z,4.15
2023-03-03T15:34:39.051Z,4.30
2023-03-03T15:37:27.507Z,4.15
2023-03-03T15:40:04.508Z,4.22
2023-03-03T15:42:39.353Z,3.90
2023-03-03T15:45:19.204Z,4.50
2023-03-03T15:48:13.784Z,4.90
2023-03-03T15:50:51.723Z,4.40
2023-03-03T15:53:42.010Z,4.30
2023-03-03T15:56:21.830Z,3.90
2023-03-03T15:59:14.076Z,4.70
2023-03-03T16:01:52.880Z,4.40
2023-03-03T16:04:25.739Z,5.70
2023-03-03T16:07:03.353Z,4.57
2023-03-03T16:09:44.556Z,4.07
2023-03-03T16:12:22.112Z,4.90
2023-03-03T16:15:21.161Z,4.18
2023-03-03T16:18:00.221Z,5.00
2023-03-03T16:20:34.098Z,5.07
2023-03-03T16:23:26.011Z,4.35
2023-03-03T16:26:07.266Z,4.70
2023-03-03T16:28:47.520Z,5.20
2023-03-03T16:31:24.214Z,4.88
2023-03-03T16:34:01.870Z,4.65
2023-03-03T16:36:40.467Z,5.13
2023-03-03T16:39:18.473Z,5.40
2023-03-03T16:41:52.566Z,4.97
2023-03-03T16:44:35.438Z,4.78
2023-03-03T16:47:18.539Z,5.57
2023-03-03T16:49:54.420Z,5.38
2023-03-03T16:52:30.317Z,5.63
2023-03-03T16:55:10.035Z,5.90
2023-03-03T16:57:52.443Z,6.25
2023-03-03T17:01:06.786Z,5.05
2023-03-03T17:06:20.496Z,5.22
2023-03-03T17:09:20.445Z,6.93
2023-03-03T17:12:08.356Z,6.95
2023-03-03T17:15:00.738Z,6.90
2023-03-03T17:17:39.425Z,6.55
2023-03-03T17:20:31.251Z,7.43
2023-03-03T17:23:21.139Z,6.65
2023-03-03T17:25:58.365Z,7.45
2023-03-03T17:28:35.893Z,7.30
2023-03-03T17:31:15.951Z,7.43
2023-03-03T17:34:21.049Z,6.78
2023-03-03T17:37:01.712Z,6.60
2023-03-03T17:40:14.148Z,7.28
2023-03-03T17:42:50.626Z,7.35
2023-03-03T17:45:23.450Z,7.75
2023-03-03T17:48:25.055Z,6.45
2023-03-03T17:51:38.782Z,6.95
2023-03-03T17:54:38.190Z,8.40
2023-03-03T17:57:57.599Z,7.43
2023-03-03T18:00:52.092Z,7.00
2023-03-03T18:04:22.101Z,7.53
2023-03-03T18:07:47.908Z,8.10
2023-03-03T18:10:43.515Z,6.53
2023-03-03T18:13:30.908Z,6.78
2023-03-03T18:16:22.284Z,6.97
2023-03-03T18:19:35.202Z,7.03
2023-03-03T18:22:08.798Z,6.70
2023-03-03T18:24:42.536Z,7.68
2023-03-03T18:27:35.797Z,6.95
2023-03-03T18:30:26.479Z,6.32
2023-03-03T18:33:15.499Z,6.82
2023-03-03T18:35:47.551Z,8.88
2023-03-03T18:38:41.833Z,7.55
2023-03-03T18:41:16.520Z,7.47
2023-03-03T18:43:56.752Z,7.93
2023-03-03T18:46:56.000Z,7.15
2023-03-03T18:49:52.765Z,8.18
2023-03-03T18:52:29.976Z,8.02
2023-03-03T18:55:24.319Z,8.60
2023-03-03T18:58:29.041Z,8.80
2023-03-03T19:01:00.735Z,9.45
2023-03-03T19:03:35.218Z,10.10
2023-03-03T19:06:11.915Z,9.30
2023-03-03T19:08:56.727Z,9.80
2023-03-03T19:11:56.368Z,10.43
2023-03-03T19:14:39.101Z,10.63
2023-03-03T19:17:41.901Z,9.80
2023-03-03T19:20:30.855Z,10.52
2023-03-03T19:23:40.970Z,8.05
2023-03-03T19:26:53.348Z,7.55
2023-03-03T19:29:48.364Z,8.15
2023-03-03T19:32:32.106Z,8.35
2023-03-03T19:35:13.902Z,10.20
2023-03-03T19:37:52.168Z,14.75
2023-03-03T19:40:27.115Z,9.82
2023-03-03T19:43:03.720Z,9.20
2023-03-03T19:45:48.472Z,11.10
2023-03-03T19:48:26.965Z,14.10
2023-03-03T19:51:01.925Z,10.45
2023-03-03T19:53:42.812Z,9.75
2023-03-03T19:56:20.048Z,9.52
2023-03-03T19:58:59.527Z,11.20
2023-03-03T20:01:32.528Z,9.88
2023-03-03T20:04:17.657Z,10.40
2023-03-03T20:06:55.570Z,9.82
2023-03-03T20:09:36.230Z,9.55
2023-03-03T20:12:20.742Z,9.00
2023-03-03T20:14:54.895Z,10.07
2023-03-03T20:17:49.948Z,8.50
2023-03-03T20:20:42.331Z,21.20
2023-03-03T20:23:20.675Z,31.73
2023-03-03T20:25:53.276Z,47.55
2023-03-03T20:28:57.861Z,45.22
2023-03-03T20:31:35.693Z,14.25
2023-03-03T20:34:19.122Z,11.43
2023-03-03T20:36:56.760Z,14.10
2023-03-03T20:39:49.577Z,11.05
2023-03-03T20:42:33.830Z,11.10
2023-03-03T20:45:28.271Z,10.85
2023-03-03T20:48:10.979Z,11.35
2023-03-03T20:50:52.105Z,10.75
2023-03-03T20:53:28.170Z,10.82
2023-03-03T20:56:05.831Z,10.75
2023-03-03T20:58:43.390Z,12.00
2023-03-03T21:01:15.806Z,11.93
2023-03-03T21:03:46.324Z,11.30
2023-03-03T21:06:16.476Z,13.50
2023-03-03T21:08:49.524Z,18.27
2023-03-03T21:11:21.567Z,20.27
2023-03-03T21:13:52.019Z,16.70
2023-03-03T21:16:39.969Z,13.98
2023-03-03T21:19:13.285Z,12.05
2023-03-03T21:21:45.190Z,9.88
2023-03-03T21:24:19.673Z,7.82
2023-03-03T21:26:58.684Z,7.80
2023-03-03T21:29:28.717Z,8.30
2023-03-03T21:31:58.908Z,8.15
2023-03-03T21:34:31.210Z,7.68
2023-03-03T21:37:00.123Z,9.40
2023-03-03T21:39:31.692Z,8.10
2023-03-03T21:42:02.518Z,8.05
2023-03-03T21:44:34.017Z,8.20
2023-03-03T21:47:02.562Z,8.73
2023-03-03T21:49:32.228Z,8.40
2023-03-03T21:52:00.851Z,9.25
2023-03-03T21:54:29.489Z,9.18
2023-03-03T21:56:57.735Z,8.57
2023-03-03T21:59:26.130Z,8.73
2023-03-03T22:01:54.459Z,8.93
2023-03-03T22:04:22.706Z,9.63
2023-03-03T22:06:52.834Z,7.95
2023-03-03T22:09:21.113Z,8.73
2023-03-03T22:11:49.874Z,8.50
2023-03-03T22:14:18.100Z,9.45
2023-03-03T22:16:47.576Z,9.27
2023-03-03T22:19:15.957Z,9.70
2023-03-03T22:21:44.290Z,10.15
2023-03-03T22:24:13.961Z,9.77
2023-03-03T22:26:42.184Z,9.93
2023-03-03T22:29:10.752Z,10.45
2023-03-03T22:31:38.988Z,10.38
2023-03-03T22:34:07.303Z,9.65
2023-03-03T22:36:35.570Z,9.45
2023-03-03T22:39:03.776Z,8.88
2023-03-03T22:41:33.403Z,8.23
2023-03-03T22:44:01.606Z,9.40
2023-03-03T22:46:29.843Z,8.82
2023-03-03T22:48:58.059Z,8.57
2023-03-03T22:51:26.400Z,9.45
2023-03-03T22:53:54.674Z,8.50
2023-03-03T22:56:22.857Z,8.30
2023-03-03T22:58:52.514Z,9.18
2023-03-03T23:01:20.723Z,8.82
2023-03-03T23:03:50.203Z,9.10
2023-03-03T23:06:18.646Z,8.77
2023-03-03T23:08:47.066Z,9.80
2023-03-03T23:11:15.303Z,9.70
2023-03-03T23:13:43.685Z,9.20
2023-03-03T23:16:13.361Z,9.50
2023-03-03T23:18:43.402Z,10.27
2023-03-03T23:21:11.646Z,9.18
2023-03-03T23:23:39.851Z,9.70
2023-03-03T23:26:08.056Z,9.82
2023-03-03T23:28:36.228Z,9.65
2023-03-03T23:31:04.448Z,10.13
2023-03-03T23:33:35.368Z,8.93
2023-03-03T23:36:03.642Z,9.55
2023-03-03T23:38:31.844Z,9.48
2023-03-03T23:41:00.040Z,9.93
2023-03-03T23:43:28.222Z,9.80
2023-03-03T23:45:56.428Z,8.95
2023-03-03T23:48:24.644Z,9.50
2023-03-03T23:50:54.255Z,9.50
2023-03-03T23:53:22.501Z,11.07
2023-03-03T23:55:52.318Z,10.05
2023-03-03T23:58:20.547Z,10.50
